Time;durP1;ratioP1;P1;durP2;ratioP2;P2;SDS_P1;SDS_P2;PMS_P1;PMS_P2;Temp;Humidity;BMP_temperature;BMP_pressure;BME280_temperature;BME280_humidity;BME280_pressure;Samples;Min_cycle;Max_cycle;Signal;HPM_P1;HPM_P2
2022/12/14 00:00:55;;;;;;;54.13;17.88;;;3.40;90.60;;;;;;5106496;28;20050;-59
2022/12/14 00:03:21;;;;;;;73.55;18.02;;;3.40;90.70;;;;;;5106641;28;20039;-58
2022/12/14 00:05:47;;;;;;;47.88;17.60;;;3.50;90.70;;;;;;5106688;28;20059;-59
2022/12/14 00:08:13;;;;;;;61.20;18.85;;;3.40;90.60;;;;;;5109697;28;20019;-58
2022/12/14 00:10:39;;;;;;;45.63;18.10;;;3.50;90.60;;;;;;5093606;28;20031;-59
2022/12/14 00:13:05;;;;;;;48.60;17.92;;;3.40;90.60;;;;;;5093209;28;20026;-59
2022/12/14 00:15:31;;;;;;;56.13;19.63;;;3.40;90.60;;;;;;5093573;28;20016;-58
2022/12/14 00:17:57;;;;;;;60.47;20.08;;;3.50;91.00;;;;;;5110533;28;20047;-59
2022/12/14 00:20:22;;;;;;;45.20;19.00;;;3.40;90.60;;;;;;5128615;28;20023;-58
2022/12/14 00:22:48;;;;;;;56.33;20.20;;;3.40;90.60;;;;;;5110619;28;20064;-58
2022/12/14 00:25:13;;;;;;;53.17;19.13;;;3.40;90.70;;;;;;5128599;28;20020;-59
2022/12/14 00:27:43;;;;;;;46.50;19.77;;;3.40;90.60;;;;;;5110036;28;20034;-59
2022/12/14 00:30:10;;;;;;;52.30;20.50;;;3.40;90.60;;;;;;5110415;28;20023;-59
2022/12/14 00:32:36;;;;;;;50.22;20.55;;;3.40;90.60;;;;;;5128635;28;20035;-59
2022/12/14 00:35:01;;;;;;;52.72;19.60;;;3.40;90.60;;;;;;5128010;28;20027;-58
2022/12/14 00:37:27;;;;;;;45.60;19.48;;;3.40;90.60;;;;;;5109601;28;20030;-59
2022/12/14 00:39:52;;;;;;;51.65;19.25;;;3.40;90.60;;;;;;5128200;28;20035;-58
2022/12/14 00:42:18;;;;;;;44.17;20.20;;;3.40;90.60;;;;;;5109794;28;20024;-59
2022/12/14 00:44:43;;;;;;;53.83;19.48;;;3.40;90.60;;;;;;5109847;28;20091;-59
2022/12/14 00:47:09;;;;;;;45.85;19.33;;;3.40;90.60;;;;;;5128181;28;20035;-59
2022/12/14 00:49:34;;;;;;;44.25;18.98;;;3.40;90.60;;;;;;5127812;28;20043;-59
2022/12/14 00:52:00;;;;;;;49.30;19.50;;;3.40;90.60;;;;;;5109276;28;20031;-59
2022/12/14 00:54:26;;;;;;;44.53;19.38;;;3.40;90.60;;;;;;5109327;28;20024;-59
2022/12/14 00:56:51;;;;;;;44.42;20.10;;;3.40;90.60;;;;;;5092934;28;20369;-59
2022/12/14 00:59:17;;;;;;;41.90;18.60;;;3.40;90.70;;;;;;5109541;28;20079;-59
2022/12/14 01:01:43;;;;;;;41.30;19.23;;;3.40;90.70;;;;;;5092584;28;20039;-59
2022/12/14 01:04:18;;;;;;;48.63;19.00;;;3.40;90.60;;;;;;5109331;28;20020;-59
2022/12/14 01:06:46;;;;;;;50.58;19.45;;;3.40;90.60;;;;;;5109264;28;20123;-58
2022/12/14 01:09:12;;;;;;;44.53;18.80;;;3.40;90.60;;;;;;5109221;28;20062;-59
2022/12/14 01:11:38;;;;;;;48.85;18.77;;;3.40;90.70;;;;;;5127481;28;20042;-59
2022/12/14 01:14:04;;;;;;;43.65;19.55;;;3.30;90.80;;;;;;5092201;28;20058;-58
2022/12/14 01:16:30;;;;;;;41.25;18.83;;;3.40;90.70;;;;;;5092201;28;20161;-59
2022/12/14 01:18:56;;;;;;;44.38;18.92;;;3.40;90.70;;;;;;5127452;28;20038;-58
2022/12/14 01:21:23;;;;;;;40.88;18.50;;;3.30;90.70;;;;;;5108785;28;20067;-59
2022/12/14 01:23:52;;;;;;;42.03;19.02;;;3.30;90.70;;;;;;5092124;28;20020;-58
2022/12/14 01:26:18;;;;;;;42.90;19.13;;;3.30;90.70;;;;;;5108443;28;20057;-59
2022/12/14 01:28:44;;;;;;;39.63;18.65;;;3.30;90.70;;;;;;5092024;28;20039;-59
2022/12/14 01:31:12;;;;;;;29.60;18.17;;;3.30;90.70;;;;;;5092050;28;20028;-58
2022/12/14 01:33:38;;;;;;;40.92;17.92;;;3.40;90.80;;;;;;5092344;28;20015;-58
2022/12/14 01:36:05;;;;;;;40.67;18.30;;;3.30;90.70;;;;;;5109016;28;20081;-59
2022/12/14 01:38:31;;;;;;;50.38;20.45;;;3.30;90.80;;;;;;5109062;28;20442;-59
2022/12/14 01:40:57;;;;;;;42.60;18.90;;;3.30;90.80;;;;;;5108673;28;20063;-58
2022/12/14 01:43:22;;;;;;;41.05;18.52;;;3.30;90.80;;;;;;5074791;28;20117;-59
2022/12/14 01:45:48;;;;;;;45.60;18.52;;;3.30;90.80;;;;;;5108492;28;20036;-59
2022/12/14 01:48:13;;;;;;;47.42;18.73;;;3.30;90.80;;;;;;5108510;28;20354;-58
2022/12/14 01:50:41;;;;;;;40.30;18.20;;;3.30;90.80;;;;;;5108591;28;20111;-58
2022/12/14 01:53:13;;;;;;;36.72;18.50;;;3.30;90.80;;;;;;5091532;28;20096;-59
2022/12/14 01:55:43;;;;;;;47.40;18.52;;;3.30;90.80;;;;;;5108269;28;20051;-59
2022/12/14 01:58:10;;;;;;;31.92;18.50;;;3.30;90.80;;;;;;5108545;28;20043;-59
2022/12/14 02:00:35;;;;;;;30.00;17.30;;;3.30;91.10;;;;;;5126646;28;20053;-59
2022/12/14 02:03:12;;;;;;;40.72;18.08;;;3.30;90.80;;;;;;5091824;28;20024;-59
2022/12/14 02:05:40;;;;;;;41.65;17.90;;;3.30;90.80;;;;;;5108113;28;20110;-59
2022/12/14 02:08:05;;;;;;;31.55;17.42;;;3.30;90.80;;;;;;5108637;28;20027;-59
2022/12/14 02:10:31;;;;;;;33.92;18.08;;;3.30;90.80;;;;;;5091178;28;20030;-59
2022/12/14 02:13:13;;;;;;;35.17;17.92;;;3.30;90.80;;;;;;5109062;28;20020;-58
2022/12/14 02:15:39;;;;;;;37.30;17.42;;;3.30;90.80;;;;;;5091403;28;20364;-58
2022/12/14 02:18:05;;;;;;;33.88;17.15;;;3.30;90.80;;;;;;5091000;28;20051;-58
2022/12/14 02:20:35;;;;;;;34.13;16.67;;;3.30;90.80;;;;;;5090731;28;20115;-58
2022/12/14 02:23:36;;;;;;;34.30;17.85;;;3.30;90.80;;;;;;5091300;28;20019;-58
2022/12/14 02:26:21;;;;;;;31.85;18.10;;;3.30;90.80;;;;;;5093837;28;20024;-59
2022/12/14 02:29:44;;;;;;;36.05;17.55;;;3.30;90.90;;;;;;5092282;28;20539;-58
2022/12/14 02:32:13;;;;;;;34.90;17.63;;;3.30;90.90;;;;;;5062935;28;20479;-58
2022/12/14 02:34:48;;;;;;;30.50;17.00;;;3.30;90.90;;;;;;5046183;28;20075;-59
2022/12/14 02:37:44;;;;;;;32.58;18.35;;;3.30;90.90;;;;;;5078015;28;20040;-59
2022/12/14 02:40:12;;;;;;;;;;;3.30;90.90;;;;;;5107926;28;20134;-59
2022/12/14 02:43:05;;;;;;;42.67;18.48;;;3.30;90.90;;;;;;5125782;28;19933;-58
2022/12/14 02:45:33;;;;;;;36.63;18.48;;;3.30;91.10;;;;;;5076383;28;20020;-59
2022/12/14 02:48:01;;;;;;;32.17;18.13;;;3.30;90.80;;;;;;5107250;28;20063;-59
2022/12/14 02:50:40;;;;;;;40.70;18.60;;;3.30;90.80;;;;;;5090380;28;20023;-59
2022/12/14 02:53:27;;;;;;;36.22;19.20;;;3.30;90.80;;;;;;5106974;28;20035;-59
2022/12/14 02:55:53;;;;;;;32.70;17.67;;;3.30;90.80;;;;;;5092574;28;20131;-58
2022/12/14 02:58:36;;;;;;;30.30;18.63;;;3.30;90.80;;;;;;5090564;28;20113;-59
2022/12/14 03:01:02;;;;;;;30.42;17.58;;;3.30;90.80;;;;;;5107880;28;20031;-59
2022/12/14 03:03:28;;;;;;;42.22;19.90;;;3.30;90.80;;;;;;5090285;28;20052;-59
2022/12/14 03:05:58;;;;;;;29.50;18.17;;;3.30;90.80;;;;;;5125574;28;20031;-59
2022/12/14 03:08:23;;;;;;;39.80;18.38;;;3.30;91.10;;;;;;5125510;28;20028;-59
2022/12/14 03:10:58;;;;;;;36.58;19.00;;;3.30;90.80;;;;;;5090133;28;20028;-59
2022/12/14 03:13:40;;;;;;;31.77;18.77;;;3.20;90.80;;;;;;5090905;28;20149;-58
2022/12/14 03:16:10;;;;;;;33.63;18.42;;;3.30;90.80;;;;;;5092130;28;20032;-58
2022/12/14 03:18:38;;;;;;;38.17;18.50;;;3.30;90.80;;;;;;5107130;28;20103;-59
2022/12/14 03:21:04;;;;;;;30.13;17.92;;;3.20;90.80;;;;;;5090043;28;20087;-59
2022/12/14 03:23:32;;;;;;;28.65;18.13;;;3.30;90.80;;;;;;5090109;28;20429;-58
2022/12/14 03:26:22;;;;;;;30.40;18.38;;;3.20;90.80;;;;;;5090083;28;20036;-59
2022/12/14 03:29:24;;;;;;;31.75;18.60;;;3.20;90.80;;;;;;5107455;28;20039;-59
2022/12/14 03:32:01;;;;;;;27.17;18.13;;;3.20;90.80;;;;;;5080681;28;20465;-58
2022/12/14 03:34:32;;;;;;;35.17;17.20;;;3.30;90.90;;;;;;5090891;28;20024;-59
2022/12/14 03:37:07;;;;;;;25.48;16.88;;;3.20;91.00;;;;;;5090797;28;20116;-58
2022/12/14 03:39:33;;;;;;;29.20;17.35;;;3.30;91.20;;;;;;5106795;28;20032;-58
2022/12/14 03:42:02;;;;;;;26.05;16.80;;;3.20;91.20;;;;;;5091348;28;20043;-58
2022/12/14 03:44:56;;;;;;;29.92;18.38;;;3.30;91.20;;;;;;5110916;28;20016;-58
2022/12/14 03:47:43;;;;;;;26.83;17.40;;;3.20;91.10;;;;;;5093922;28;20035;-59
2022/12/14 03:50:26;;;;;;;32.85;18.65;;;3.30;91.00;;;;;;5095471;28;20016;-58
2022/12/14 03:52:56;;;;;;;29.33;19.30;;;3.30;90.90;;;;;;5110651;28;20242;-59
2022/12/14 03:55:37;;;;;;;25.40;17.70;;;3.30;90.80;;;;;;5110799;28;20016;-59
2022/12/14 03:58:24;;;;;;;27.90;16.67;;;3.30;90.90;;;;;;5129188;28;20358;-58
2022/12/14 04:01:02;;;;;;;26.73;17.65;;;3.30;90.90;;;;;;5110858;28;20041;-58
2022/12/14 04:03:48;;;;;;;30.75;18.27;;;3.20;90.80;;;;;;5094672;28;20039;-59
2022/12/14 04:06:22;;;;;;;28.63;17.27;;;3.20;90.90;;;;;;5110399;28;20077;-59
2022/12/14 04:09:06;;;;;;;25.92;16.77;;;3.20;91.00;;;;;;5094214;28;20023;-59
2022/12/14 04:20:06;;;;;;;27.20;16.67;;;3.20;91.50;;;;;;5098990;28;20049;-58
2022/12/14 04:22:34;;;;;;;27.48;17.05;;;3.20;91.40;;;;;;5093671;28;20035;-58
2022/12/14 04:27:58;;;;;;;28.98;16.35;;;3.20;91.20;;;;;;5099639;28;20070;-58
2022/12/14 04:30:24;;;;;;;27.23;17.15;;;3.30;91.00;;;;;;5093222;28;20023;-59
2022/12/14 04:33:45;;;;;;;24.90;16.75;;;3.30;91.00;;;;;;5093193;28;20023;-58
2022/12/14 04:35:45;;;;;;;;;;;3.30;91.00;;;;;;5099835;28;20036;-58
2022/12/14 04:38:23;;;;;;;28.02;16.30;;;3.30;91.00;;;;;;5109870;28;19914;-59
2022/12/14 04:40:55;;;;;;;29.60;17.13;;;3.20;91.10;;;;;;5093262;28;20039;-59
2022/12/14 04:43:25;;;;;;;23.85;17.27;;;3.20;91.20;;;;;;5110732;28;20031;-59
2022/12/14 04:45:58;;;;;;;24.70;16.05;;;3.20;91.30;;;;;;5093031;28;20031;-59
2022/12/14 04:48:31;;;;;;;20.67;15.93;;;3.20;91.40;;;;;;5076206;28;20055;-59
2022/12/14 04:51:37;;;;;;;28.05;16.65;;;3.30;91.60;;;;;;5093641;28;20042;-59
2022/12/14 04:54:25;;;;;;;27.85;18.35;;;3.30;91.80;;;;;;5091772;28;20065;-59
2022/12/14 04:57:05;;;;;;;25.88;17.90;;;3.30;91.90;;;;;;5093569;28;20036;-59
2022/12/14 04:59:31;;;;;;;27.33;18.50;;;3.30;91.90;;;;;;5127867;28;20038;-59
2022/12/14 05:02:26;;;;;;;26.05;17.90;;;3.30;92.00;;;;;;5092454;28;20027;-59
2022/12/14 05:04:54;;;;;;;37.05;18.98;;;3.30;92.00;;;;;;5109012;28;20092;-59
2022/12/14 05:07:33;;;;;;;24.95;16.30;;;3.30;92.00;;;;;;5109152;28;20047;-59
2022/12/14 05:10:04;;;;;;;23.63;17.45;;;3.30;92.00;;;;;;5109902;28;20139;-59
2022/12/14 05:12:44;;;;;;;29.17;17.05;;;3.30;91.90;;;;;;5093255;28;20084;-58
2022/12/14 05:15:14;;;;;;;26.48;16.80;;;3.30;91.80;;;;;;5109061;28;20023;-59
2022/12/14 05:17:40;;;;;;;28.15;16.55;;;3.30;91.70;;;;;;5109064;28;20047;-59
2022/12/14 05:20:06;;;;;;;24.27;17.48;;;3.30;91.70;;;;;;5092192;28;20031;-59
2022/12/14 05:22:32;;;;;;;21.88;17.25;;;3.30;91.70;;;;;;5108929;28;20028;-59
2022/12/14 05:24:57;;;;;;;25.45;17.15;;;3.30;91.70;;;;;;5108807;28;20487;-59
2022/12/14 05:27:23;;;;;;;26.50;17.17;;;3.30;91.60;;;;;;5127468;28;20472;-59
2022/12/14 05:29:48;;;;;;;26.60;16.75;;;3.30;91.60;;;;;;5127015;28;20027;-59
2022/12/14 05:32:14;;;;;;;22.55;16.60;;;3.30;91.60;;;;;;5127345;28;20105;-58
2022/12/14 05:34:39;;;;;;;23.95;17.17;;;3.30;91.60;;;;;;5108807;28;20385;-59
2022/12/14 05:37:05;;;;;;;29.73;16.98;;;3.30;91.70;;;;;;5127405;28;20106;-59
2022/12/14 05:39:30;;;;;;;27.60;17.55;;;3.30;91.80;;;;;;5108795;28;20059;-59
2022/12/14 05:41:56;;;;;;;25.67;17.38;;;3.30;91.80;;;;;;5108435;28;20036;-59
2022/12/14 05:44:21;;;;;;;24.08;16.42;;;3.30;91.90;;;;;;5108762;28;20111;-59
2022/12/14 05:46:47;;;;;;;21.95;17.30;;;3.30;91.90;;;;;;5108754;28;20061;-59
2022/12/14 05:49:13;;;;;;;27.42;17.00;;;3.30;92.00;;;;;;5126719;28;20046;-59
2022/12/14 05:51:38;;;;;;;26.00;17.17;;;3.30;91.90;;;;;;5108470;28;20130;-59
2022/12/14 05:54:04;;;;;;;25.83;16.35;;;3.30;91.90;;;;;;5127019;28;20031;-59
2022/12/14 05:56:29;;;;;;;21.30;16.02;;;3.30;91.90;;;;;;5091291;28;20032;-59
2022/12/14 05:58:55;;;;;;;25.33;17.63;;;3.30;91.90;;;;;;5091476;28;20107;-59
2022/12/14 06:01:21;;;;;;;27.00;17.42;;;3.30;91.90;;;;;;5091472;28;20035;-59
2022/12/14 06:03:46;;;;;;;24.95;16.25;;;3.30;92.00;;;;;;5108012;28;20095;-59
2022/12/14 06:06:12;;;;;;;22.88;16.88;;;3.30;92.20;;;;;;5090700;28;20036;-59
2022/12/14 06:08:39;;;;;;;27.33;16.98;;;3.30;92.20;;;;;;5108163;28;20030;-59
2022/12/14 06:11:07;;;;;;;23.30;17.13;;;3.30;92.20;;;;;;5126475;28;20027;-59
2022/12/14 06:13:36;;;;;;;25.52;16.45;;;3.30;92.30;;;;;;5091508;28;20023;-59
2022/12/14 06:16:15;;;;;;;21.65;17.08;;;3.30;92.30;;;;;;5126240;28;20080;-59
2022/12/14 06:18:42;;;;;;;21.67;17.33;;;3.30;92.30;;;;;;5107739;28;20126;-59
2022/12/14 06:21:08;;;;;;;26.67;16.60;;;3.30;92.30;;;;;;5126206;28;20032;-59
2022/12/14 06:23:33;;;;;;;23.92;17.33;;;3.30;92.30;;;;;;5107813;28;20100;-59
2022/12/14 06:25:59;;;;;;;21.23;15.48;;;3.30;92.30;;;;;;5107759;28;20035;-59
2022/12/14 06:28:24;;;;;;;31.08;17.50;;;3.30;92.40;;;;;;5126225;28;20024;-59
2022/12/14 06:30:50;;;;;;;26.85;17.50;;;3.30;92.40;;;;;;5107589;28;20027;-59
2022/12/14 06:33:15;;;;;;;23.45;16.48;;;3.30;92.30;;;;;;5107792;28;20077;-59
2022/12/14 06:35:44;;;;;;;24.15;16.63;;;3.30;92.30;;;;;;5125879;28;20027;-59
2022/12/14 06:38:10;;;;;;;23.80;16.10;;;3.30;92.30;;;;;;5126019;28;20020;-59
2022/12/14 06:40:36;;;;;;;22.77;16.55;;;3.30;92.30;;;;;;5090883;28;20070;-59
2022/12/14 06:43:02;;;;;;;19.77;15.70;;;3.30;92.30;;;;;;5090442;28;20024;-59
2022/12/14 06:45:28;;;;;;;22.10;16.13;;;3.30;92.30;;;;;;5107344;28;20117;-59
2022/12/14 06:47:53;;;;;;;22.10;17.10;;;3.30;92.30;;;;;;5090422;28;20035;-59
2022/12/14 06:50:19;;;;;;;23.58;17.30;;;3.30;92.30;;;;;;5090432;28;20028;-59
2022/12/14 06:52:48;;;;;;;22.95;15.98;;;3.30;92.30;;;;;;5090398;28;20519;-59
2022/12/14 06:55:13;;;;;;;24.83;17.00;;;3.30;92.30;;;;;;5090377;28;20015;-59
2022/12/14 06:57:39;;;;;;;21.52;16.17;;;3.30;92.20;;;;;;5125602;28;20061;-59
2022/12/14 07:00:05;;;;;;;20.92;16.45;;;3.30;92.20;;;;;;5103414;28;20510;-59
2022/12/14 07:02:31;;;;;;;23.77;17.08;;;3.30;92.20;;;;;;5102586;28;20043;-59
2022/12/14 07:04:56;;;;;;;20.15;16.27;;;3.30;92.20;;;;;;5088114;28;20051;-59
2022/12/14 07:07:22;;;;;;;23.95;15.93;;;3.30;92.20;;;;;;5089501;28;20040;-59
2022/12/14 07:09:47;;;;;;;21.88;15.45;;;3.30;92.20;;;;;;5101892;28;20098;-59
2022/12/14 07:12:14;;;;;;;20.88;15.32;;;3.30;92.20;;;;;;5118423;28;20024;-59
2022/12/14 07:14:39;;;;;;;21.80;15.13;;;3.30;92.20;;;;;;5123089;28;20020;-59
2022/12/14 07:17:05;;;;;;;22.75;16.40;;;3.30;92.20;;;;;;5100409;28;20027;-59
2022/12/14 07:19:31;;;;;;;20.52;16.05;;;3.30;92.20;;;;;;5104098;28;20024;-59
2022/12/14 07:21:56;;;;;;;21.55;16.23;;;3.30;92.20;;;;;;5119462;28;20040;-59
2022/12/14 07:24:22;;;;;;;23.08;15.63;;;3.30;92.20;;;;;;5106905;28;20475;-59
2022/12/14 07:26:47;;;;;;;21.85;16.27;;;3.30;92.10;;;;;;5117390;28;20035;-59
2022/12/14 07:29:15;;;;;;;21.55;16.10;;;3.30;92.20;;;;;;5107128;28;20091;-59
2022/12/14 07:31:41;;;;;;;22.10;16.40;;;3.30;92.20;;;;;;5105335;28;20055;-59
2022/12/14 07:34:06;;;;;;;28.17;16.40;;;3.30;92.20;;;;;;5120516;28;20466;-59
2022/12/14 07:36:32;;;;;;;21.30;15.45;;;3.30;92.20;;;;;;5112848;28;20032;-59
2022/12/14 07:38:57;;;;;;;20.15;15.85;;;3.30;92.20;;;;;;5125274;28;20023;-58
2022/12/14 07:41:29;;;;;;;20.90;15.20;;;3.30;92.20;;;;;;5106609;28;20032;-59
2022/12/14 07:43:55;;;;;;;22.67;15.70;;;3.30;92.20;;;;;;5106866;28;20024;-59
2022/12/14 07:46:22;;;;;;;22.75;17.17;;;3.30;92.20;;;;;;5124674;28;20042;-59
2022/12/14 07:48:52;;;;;;;22.02;15.68;;;3.30;92.20;;;;;;5106725;28;20027;-59
2022/12/14 07:51:20;;;;;;;25.70;16.55;;;3.30;92.20;;;;;;5087467;28;20039;-59
2022/12/14 07:53:46;;;;;;;23.15;17.48;;;3.30;92.20;;;;;;5102400;28;20537;-58
2022/12/14 07:56:13;;;;;;;23.95;16.33;;;3.30;92.20;;;;;;5110894;28;20050;-59
2022/12/14 07:58:38;;;;;;;19.80;16.48;;;3.30;92.20;;;;;;5100039;28;20031;-59
2022/12/14 08:01:14;;;;;;;19.88;16.17;;;3.30;92.20;;;;;;5079273;28;20475;-60
2022/12/14 08:03:40;;;;;;;;;;;3.30;92.20;;;;;;5107149;28;20044;-59
2022/12/14 08:06:06;;;;;;;21.35;16.23;;;3.30;92.20;;;;;;5111693;28;19943;-59
2022/12/14 08:08:32;;;;;;;23.70;16.73;;;3.30;92.20;;;;;;5106588;28;20057;-59
2022/12/14 08:10:58;;;;;;;20.95;15.95;;;3.30;92.30;;;;;;5107076;28;20549;-59
2022/12/14 08:13:23;;;;;;;19.83;15.70;;;3.30;92.30;;;;;;5106917;28;20043;-59
2022/12/14 08:15:49;;;;;;;21.20;15.77;;;3.30;92.30;;;;;;5124107;28;20051;-59
2022/12/14 08:18:15;;;;;;;21.33;15.30;;;3.40;92.30;;;;;;5108796;28;20095;-59
2022/12/14 08:20:40;;;;;;;21.17;15.70;;;3.30;92.30;;;;;;5104099;28;20029;-59
2022/12/14 08:23:06;;;;;;;23.30;16.58;;;3.40;92.40;;;;;;5086327;28;20035;-59
2022/12/14 08:25:31;;;;;;;22.23;16.00;;;3.40;92.30;;;;;;5101436;28;20083;-59
2022/12/14 08:27:57;;;;;;;22.02;15.82;;;3.40;92.40;;;;;;5125674;28;20038;-58
2022/12/14 08:30:23;;;;;;;26.50;16.67;;;3.40;92.40;;;;;;5128299;28;20105;-58
2022/12/14 08:32:48;;;;;;;22.95;15.57;;;3.40;92.40;;;;;;5124497;28;20016;-59
2022/12/14 08:35:14;;;;;;;25.35;16.02;;;3.40;92.30;;;;;;5089223;28;20106;-59
2022/12/14 08:37:39;;;;;;;27.83;17.48;;;3.40;92.30;;;;;;5110128;28;20024;-58
2022/12/14 08:40:05;;;;;;;28.33;16.70;;;3.40;92.40;;;;;;5106349;28;20023;-58
2022/12/14 08:42:31;;;;;;;37.50;16.92;;;3.40;92.40;;;;;;5089152;28;20036;-59
2022/12/14 08:44:57;;;;;;;35.97;17.80;;;3.40;92.40;;;;;;5109127;28;20040;-58
2022/12/14 08:47:22;;;;;;;26.27;16.70;;;3.50;92.40;;;;;;5090009;28;20044;-59
2022/12/14 08:49:48;;;;;;;29.05;16.20;;;3.50;92.40;;;;;;5089155;28;20028;-58
2022/12/14 08:52:13;;;;;;;27.17;16.38;;;3.50;92.40;;;;;;5094338;28;20043;-58
2022/12/14 08:54:39;;;;;;;28.58;16.77;;;3.50;92.40;;;;;;5127726;28;20024;-58
2022/12/14 08:57:04;;;;;;;34.58;17.25;;;3.50;92.30;;;;;;5110717;28;20020;-58
2022/12/14 08:59:30;;;;;;;34.47;16.95;;;3.50;92.40;;;;;;5128203;28;20027;-58
2022/12/14 09:01:56;;;;;;;38.80;17.45;;;3.50;92.40;;;;;;5127389;28;20080;-59
2022/12/14 09:04:21;;;;;;;34.60;16.77;;;3.50;92.50;;;;;;5109108;28;20024;-58
2022/12/14 09:06:47;;;;;;;30.02;16.48;;;3.60;92.50;;;;;;5127353;28;20039;-59
2022/12/14 09:09:12;;;;;;;43.15;17.67;;;3.60;92.50;;;;;;5113130;28;20434;-58
2022/12/14 09:11:38;;;;;;;32.78;17.88;;;3.60;92.50;;;;;;5116160;28;20035;-58
2022/12/14 09:14:04;;;;;;;81.88;19.27;;;3.60;92.50;;;;;;5098323;28;20057;-58
2022/12/14 09:16:29;;;;;;;44.30;18.50;;;3.60;92.60;;;;;;5105800;28;20042;-58
2022/12/14 09:18:55;;;;;;;49.35;19.55;;;3.60;92.60;;;;;;5106745;28;20024;-58
2022/12/14 09:21:21;;;;;;;58.42;18.05;;;3.60;92.70;;;;;;5091967;28;20038;-58
2022/12/14 09:23:46;;;;;;;54.55;19.65;;;3.60;92.70;;;;;;5109028;28;20023;-58
2022/12/14 09:26:13;;;;;;;70.75;20.90;;;3.60;92.70;;;;;;5126758;28;20035;-58
2022/12/14 09:28:39;;;;;;;68.13;19.45;;;3.60;92.60;;;;;;5105570;28;20031;-58
2022/12/14 09:31:07;;;;;;;60.20;19.13;;;3.60;92.70;;;;;;5106504;28;20032;-59
2022/12/14 09:33:32;;;;;;;67.88;20.70;;;3.60;92.70;;;;;;5092997;28;20055;-59
2022/12/14 09:36:03;;;;;;;54.40;18.83;;;3.60;92.70;;;;;;5109421;28;20032;-59
2022/12/14 09:38:30;;;;;;;60.08;20.25;;;3.60;92.60;;;;;;5123887;28;20019;-55
2022/12/14 09:40:57;;;;;;;63.55;21.15;;;3.70;92.60;;;;;;5107763;28;20053;-55
2022/12/14 09:43:37;;;;;;;58.45;19.77;;;3.70;92.60;;;;;;5108577;28;20088;-55
2022/12/14 09:46:12;;;;;;;83.63;21.08;;;3.70;92.70;;;;;;5107811;28;20032;-55
2022/12/14 09:48:38;;;;;;;72.47;19.90;;;3.70;92.70;;;;;;5088142;28;20543;-55
2022/12/14 09:51:04;;;;;;;57.92;20.50;;;3.70;92.70;;;;;;5101601;28;20028;-55
2022/12/14 09:53:30;;;;;;;67.25;21.13;;;3.70;92.80;;;;;;5090986;28;20035;-55
2022/12/14 09:55:55;;;;;;;72.25;20.42;;;3.80;92.80;;;;;;5088005;28;20047;-55
2022/12/14 09:58:24;;;;;;;53.10;19.08;;;3.70;92.70;;;;;;5093224;28;20077;-55
2022/12/14 10:01:07;;;;;;;139.13;28.45;;;3.80;92.80;;;;;;5106776;28;20028;-55
2022/12/14 10:04:07;;;;;;;107.55;23.30;;;3.80;92.80;;;;;;5098963;28;20035;-55
2022/12/14 10:06:54;;;;;;;76.97;22.38;;;3.80;92.70;;;;;;5096677;28;20040;-55
2022/12/14 10:09:41;;;;;;;63.80;21.67;;;3.80;92.70;;;;;;5124894;28;20023;-55
2022/12/14 10:12:13;;;;;;;94.00;24.10;;;3.80;92.70;;;;;;5106566;28;20036;-55
2022/12/14 10:14:50;;;;;;;73.85;22.23;;;3.90;92.80;;;;;;5098388;28;20030;-55
2022/12/14 10:17:20;;;;;;;71.55;20.83;;;3.90;92.80;;;;;;5124629;28;20049;-55
2022/12/14 10:19:52;;;;;;;78.88;22.20;;;3.90;92.90;;;;;;5121996;28;20028;-56
2022/12/14 10:22:20;;;;;;;71.07;21.95;;;3.90;93.00;;;;;;5090415;28;20103;-56
2022/12/14 10:24:51;;;;;;;65.00;22.10;;;4.00;93.10;;;;;;5104446;28;20027;-55
2022/12/14 10:27:26;;;;;;;95.22;21.50;;;3.90;93.00;;;;;;5107636;28;20038;-56
2022/12/14 10:30:06;;;;;;;85.30;22.33;;;4.00;93.00;;;;;;5105074;28;20024;-55
2022/12/14 10:32:36;;;;;;;71.30;21.83;;;4.00;93.10;;;;;;5125872;28;20036;-55
2022/12/14 10:35:13;;;;;;;69.72;21.15;;;4.00;93.10;;;;;;5106403;28;20089;-55
2022/12/14 10:37:42;;;;;;;66.50;20.42;;;4.00;92.90;;;;;;5103058;28;20035;-55
2022/12/14 10:40:08;;;;;;;56.45;21.88;;;4.00;93.00;;;;;;5106789;28;20098;-55
2022/12/14 10:42:33;;;;;;;67.80;21.70;;;4.00;93.10;;;;;;5106399;28;20039;-55
2022/12/14 10:45:08;;;;;;;64.22;21.05;;;4.10;93.20;;;;;;5125329;28;20054;-55
2022/12/14 10:47:56;;;;;;;75.60;21.73;;;4.00;93.20;;;;;;5125171;28;20038;-55
2022/12/14 10:50:39;;;;;;;52.40;20.15;;;4.10;93.10;;;;;;5115138;28;20061;-55
2022/12/14 10:53:05;;;;;;;65.50;20.95;;;4.10;93.30;;;;;;5120671;28;20031;-59
2022/12/14 10:55:37;;;;;;;57.75;20.25;;;4.10;93.00;;;;;;5097690;28;20024;-58
2022/12/14 10:58:03;;;;;;;76.10;20.50;;;4.10;93.00;;;;;;5106225;28;20020;-59
2022/12/14 11:00:29;;;;;;;56.22;19.38;;;4.20;93.10;;;;;;5124879;28;20028;-59
2022/12/14 11:02:55;;;;;;;52.78;20.15;;;4.20;93.20;;;;;;5106716;28;20035;-58
2022/12/14 11:05:22;;;;;;;54.97;20.00;;;4.20;93.20;;;;;;5090357;28;20123;-61
2022/12/14 11:07:48;;;;;;;54.70;18.33;;;4.20;93.20;;;;;;5125131;28;20035;-59
2022/12/14 11:10:20;;;;;;;50.47;20.80;;;4.20;93.10;;;;;;5086472;28;20099;-59
2022/12/14 11:12:57;;;;;;;66.30;21.35;;;4.30;93.20;;;;;;5102691;28;20051;-59
2022/12/14 11:15:27;;;;;;;65.75;21.75;;;4.30;93.40;;;;;;5123387;28;20020;-59
2022/12/14 11:18:15;;;;;;;56.25;21.15;;;4.30;93.50;;;;;;5089433;28;20524;-59
2022/12/14 11:20:57;;;;;;;51.22;19.40;;;4.30;93.60;;;;;;5120424;28;20083;-59
2022/12/14 11:23:27;;;;;;;50.63;20.85;;;4.30;93.60;;;;;;5080189;28;20039;-59
2022/12/14 11:25:54;;;;;;;60.97;19.63;;;4.40;93.70;;;;;;5106213;28;20079;-60
2022/12/14 11:28:26;;;;;;;56.65;20.77;;;4.40;93.60;;;;;;5087815;28;20016;-60
2022/12/14 11:31:00;;;;;;;66.35;21.80;;;4.40;93.80;;;;;;5121153;28;20024;-60
2022/12/14 11:33:31;;;;;;;50.67;20.25;;;4.40;93.90;;;;;;5106276;28;20102;-60
2022/12/14 11:35:56;;;;;;;60.35;21.13;;;4.40;93.90;;;;;;5089859;28;20028;-60
2022/12/14 11:38:22;;;;;;;74.78;22.65;;;4.50;94.00;;;;;;5105526;28;20039;-60
2022/12/14 11:40:47;;;;;;;68.80;22.08;;;4.50;94.10;;;;;;5105767;28;20063;-60
2022/12/14 11:43:27;;;;;;;71.13;21.02;;;4.50;94.20;;;;;;5085902;28;20024;-60
2022/12/14 11:45:54;;;;;;;66.80;21.25;;;4.50;94.20;;;;;;5083071;28;20050;-60
2022/12/14 11:48:22;;;;;;;65.15;21.23;;;4.50;94.30;;;;;;5123962;28;20047;-60
2022/12/14 11:50:48;;;;;;;51.00;21.48;;;4.60;94.50;;;;;;5103241;28;20028;-59
2022/12/14 11:53:18;;;;;;;54.72;21.35;;;4.60;94.60;;;;;;5089280;28;20110;-60
2022/12/14 11:56:03;;;;;;;58.05;20.67;;;4.60;94.70;;;;;;5106280;28;20038;-60
2022/12/14 11:58:37;;;;;;;67.07;21.88;;;4.60;94.80;;;;;;5106576;28;20024;-60
2022/12/14 12:01:11;;;;;;;65.85;22.02;;;4.70;94.90;;;;;;5087519;28;20034;-60
2022/12/14 12:03:47;;;;;;;51.22;20.50;;;4.70;95.00;;;;;;5108153;28;20035;-60
2022/12/14 12:06:17;;;;;;;60.50;22.35;;;4.70;95.10;;;;;;5077406;28;20030;-60
2022/12/14 12:08:43;;;;;;;63.25;20.48;;;4.70;95.10;;;;;;5107964;28;20027;-59
2022/12/14 12:11:19;;;;;;;64.55;20.65;;;4.80;95.30;;;;;;5109987;28;20078;-60
2022/12/14 12:13:46;;;;;;;51.33;21.05;;;4.80;95.30;;;;;;5109548;28;20031;-60
2022/12/14 12:16:22;;;;;;;67.30;20.90;;;4.80;95.20;;;;;;5109356;28;20166;-60
2022/12/14 12:18:55;;;;;;;;;;;4.80;95.10;;;;;;5108659;28;20084;-60
2022/12/14 12:21:28;;;;;;;78.32;23.40;;;4.80;95.10;;;;;;5109443;28;19919;-60
2022/12/14 12:23:54;;;;;;;68.63;23.38;;;4.80;95.20;;;;;;5105202;28;20107;-60
2022/12/14 12:26:24;;;;;;;70.88;21.98;;;4.80;95.30;;;;;;5119634;28;20054;-59
2022/12/14 12:29:11;;;;;;;75.53;22.58;;;4.80;95.30;;;;;;5128233;28;20032;-58
2022/12/14 12:31:49;;;;;;;73.72;22.48;;;4.80;95.40;;;;;;5093904;28;20183;-60
2022/12/14 12:34:32;;;;;;;65.82;22.95;;;4.80;95.60;;;;;;5110156;28;20100;-59
2022/12/14 12:36:59;;;;;;;110.88;27.63;;;4.90;95.70;;;;;;5109791;28;20039;-60
2022/12/14 12:39:25;;;;;;;101.15;24.38;;;4.90;95.80;;;;;;5103419;28;20031;-60
2022/12/14 12:42:05;;;;;;;129.25;27.90;;;4.90;95.90;;;;;;5109359;28;20045;-60
2022/12/14 12:44:39;;;;;;;86.28;24.98;;;4.90;95.90;;;;;;5108809;28;20052;-59
2022/12/14 12:47:32;;;;;;;69.97;23.50;;;4.90;96.00;;;;;;5105376;28;20036;-60
2022/12/14 12:50:05;;;;;;;67.72;20.75;;;4.90;96.00;;;;;;5104784;28;20059;-60
2022/12/14 12:52:35;;;;;;;74.35;20.75;;;4.90;96.00;;;;;;5088563;28;20085;-61
2022/12/14 12:55:16;;;;;;;64.18;22.23;;;5.00;96.10;;;;;;5091100;28;20019;-60
2022/12/14 12:57:44;;;;;;;73.55;20.63;;;5.00;96.20;;;;;;5086601;28;20032;-61
2022/12/14 13:00:20;;;;;;;58.10;20.60;;;5.00;96.20;;;;;;5067160;28;20053;-61
2022/12/14 13:02:55;;;;;;;52.08;20.15;;;5.00;96.30;;;;;;5123313;28;20051;-61
2022/12/14 13:05:22;;;;;;;46.30;19.38;;;5.00;96.40;;;;;;5106785;28;20028;-61